createdAt,value
2022-12-03T00:01:00.006Z,13.15
2022-12-03T00:03:30.968Z,13.30
2022-12-03T00:06:04.413Z,12.40
2022-12-03T00:08:37.125Z,13.18
2022-12-03T00:11:07.997Z,13.93
2022-12-03T00:13:38.603Z,13.43
2022-12-03T00:16:09.768Z,12.52
2022-12-03T00:18:40.452Z,13.77
2022-12-03T00:21:13.670Z,13.07
2022-12-03T00:23:44.400Z,12.10
2022-12-03T00:26:15.345Z,11.90
2022-12-03T00:28:46.061Z,11.90
2022-12-03T00:31:17.340Z,11.68
2022-12-03T00:33:47.997Z,12.00
2022-12-03T00:36:21.902Z,11.77
2022-12-03T00:38:52.465Z,12.10
2022-12-03T00:41:23.027Z,11.40
2022-12-03T00:43:57.631Z,11.15
2022-12-03T00:46:28.621Z,12.55
2022-12-03T00:48:59.657Z,11.32
2022-12-03T00:51:33.207Z,11.55
2022-12-03T00:54:03.904Z,10.77
2022-12-03T00:56:34.627Z,11.60
2022-12-03T00:59:05.350Z,11.07
2022-12-03T01:01:36.101Z,11.77
2022-12-03T01:04:07.075Z,11.68
2022-12-03T01:06:40.290Z,12.63
2022-12-03T01:09:10.994Z,12.15
2022-12-03T01:11:42.097Z,12.48
2022-12-03T01:14:14.577Z,11.85
2022-12-03T01:16:46.244Z,11.90
2022-12-03T01:19:18.131Z,11.38
2022-12-03T01:21:53.492Z,10.52
2022-12-03T01:24:24.330Z,10.90
2022-12-03T01:26:56.375Z,10.23
2022-12-03T01:29:27.084Z,9.93
2022-12-03T01:32:10.127Z,11.20
2022-12-03T01:34:40.978Z,10.00
2022-12-03T01:37:14.727Z,11.15
2022-12-03T01:39:46.500Z,10.50
2022-12-03T01:42:20.839Z,11.85
2022-12-03T01:44:54.080Z,11.57
2022-12-03T01:47:29.811Z,10.57
2022-12-03T01:50:03.908Z,9.75
2022-12-03T01:52:41.874Z,10.00
2022-12-03T01:55:19.465Z,8.98
2022-12-03T01:57:53.525Z,10.20
2022-12-03T02:00:27.303Z,10.02
2022-12-03T02:03:00.271Z,10.73
2022-12-03T02:05:33.117Z,12.60
2022-12-03T02:08:32.730Z,10.98
2022-12-03T02:11:06.681Z,11.18
2022-12-03T02:14:02.339Z,10.65
2022-12-03T02:19:03.758Z,9.65
2022-12-03T02:21:41.911Z,7.88
2022-12-03T02:24:22.846Z,10.70
2022-12-03T02:26:56.421Z,10.23
2022-12-03T02:29:29.772Z,6.85
2022-12-03T02:32:00.506Z,6.47
2022-12-03T02:34:39.369Z,6.28
2022-12-03T02:37:14.703Z,7.15
2022-12-03T02:39:49.577Z,7.25
2022-12-03T02:42:38.535Z,7.18
2022-12-03T02:45:14.438Z,7.38
2022-12-03T02:47:47.628Z,6.88
2022-12-03T02:50:22.222Z,6.70
2022-12-03T02:52:54.190Z,6.93
2022-12-03T02:55:26.307Z,6.68
2022-12-03T02:58:00.289Z,7.65
2022-12-03T03:00:31.249Z,7.40
2022-12-03T03:03:03.820Z,8.07
2022-12-03T03:05:35.302Z,7.90
2022-12-03T03:08:06.717Z,6.07
2022-12-03T03:10:39.354Z,6.80
2022-12-03T03:13:14.647Z,6.47
2022-12-03T03:15:46.268Z,6.90
2022-12-03T03:18:18.766Z,6.80
2022-12-03T03:20:49.535Z,5.90
2022-12-03T03:23:23.036Z,6.13
2022-12-03T03:25:59.593Z,5.32
2022-12-03T03:28:34.232Z,5.88
2022-12-03T03:31:07.437Z,4.77
2022-12-03T03:33:38.602Z,5.80
2022-12-03T03:36:10.756Z,5.90
2022-12-03T03:38:42.791Z,6.10
2022-12-03T03:41:15.531Z,6.25
2022-12-03T03:43:50.595Z,6.50
2022-12-03T03:46:22.632Z,7.20
2022-12-03T03:48:54.767Z,5.22
2022-12-03T03:51:25.691Z,5.13
2022-12-03T03:53:56.648Z,5.05
2022-12-03T03:56:28.351Z,4.55
2022-12-03T03:59:02.009Z,4.57
2022-12-03T04:01:33.260Z,4.85
2022-12-03T04:04:04.103Z,4.90
2022-12-03T04:06:37.097Z,5.70
2022-12-03T04:09:07.781Z,6.03
2022-12-03T04:11:52.532Z,6.00
2022-12-03T04:14:26.074Z,6.28
2022-12-03T04:16:57.007Z,6.20
2022-12-03T04:19:27.748Z,5.15
2022-12-03T04:22:10.682Z,6.13
2022-12-03T04:24:41.462Z,4.68
2022-12-03T04:27:24.506Z,5.53
2022-12-03T04:29:57.811Z,4.68
2022-12-03T04:32:41.041Z,5.18
2022-12-03T04:35:25.571Z,5.75
2022-12-03T04:37:56.748Z,4.50
2022-12-03T04:40:39.831Z,5.65
2022-12-03T04:43:10.776Z,5.07
2022-12-03T04:45:44.675Z,4.57
2022-12-03T04:48:15.558Z,4.97
2022-12-03T04:50:46.492Z,4.88
2022-12-03T04:53:17.278Z,5.75
2022-12-03T04:55:48.222Z,4.72
2022-12-03T04:58:19.166Z,4.50
2022-12-03T05:00:52.673Z,4.82
2022-12-03T05:03:23.596Z,3.78
2022-12-03T05:05:54.207Z,3.90
2022-12-03T05:08:24.794Z,3.75
2022-12-03T05:10:55.959Z,4.78
2022-12-03T05:13:26.796Z,4.57
2022-12-03T05:16:01.033Z,4.53
2022-12-03T05:18:32.366Z,4.72
2022-12-03T05:21:03.175Z,4.60
2022-12-03T05:23:34.296Z,3.53
2022-12-03T05:26:05.261Z,4.00
2022-12-03T05:28:37.800Z,5.00
2022-12-03T05:31:12.083Z,4.78
2022-12-03T05:33:44.594Z,5.93
2022-12-03T05:36:16.056Z,7.88
2022-12-03T05:38:47.081Z,6.57
2022-12-03T05:41:30.120Z,7.05
2022-12-03T05:44:00.638Z,8.50
2022-12-03T05:46:34.565Z,7.97
2022-12-03T05:49:05.384Z,9.02
2022-12-03T05:51:36.149Z,11.32
2022-12-03T05:54:06.862Z,12.45
2022-12-03T05:56:37.719Z,13.07
2022-12-03T05:59:08.636Z,12.40
2022-12-03T06:01:41.993Z,8.30
2022-12-03T06:04:12.864Z,7.28
2022-12-03T06:06:43.636Z,6.53
2022-12-03T06:09:14.550Z,7.63
2022-12-03T06:11:45.069Z,3.88
2022-12-03T06:14:15.847Z,5.03
2022-12-03T06:16:49.270Z,4.93
2022-12-03T06:19:20.353Z,8.27
2022-12-03T06:21:51.206Z,7.95
2022-12-03T06:24:21.961Z,6.72
2022-12-03T06:26:52.720Z,6.18
2022-12-03T06:29:23.635Z,6.85
2022-12-03T06:31:56.882Z,5.85
2022-12-03T06:34:27.546Z,6.03
2022-12-03T06:36:58.361Z,6.53
2022-12-03T06:39:29.107Z,5.40
2022-12-03T06:41:59.655Z,6.90
2022-12-03T06:44:30.341Z,7.10
2022-12-03T06:47:03.905Z,5.55
2022-12-03T06:49:34.943Z,5.38
2022-12-03T06:52:05.971Z,6.75
2022-12-03T06:54:37.874Z,6.78
2022-12-03T06:57:08.675Z,6.90
2022-12-03T06:59:39.522Z,6.40
2022-12-03T07:02:13.103Z,8.02
2022-12-03T07:04:52.533Z,6.25
2022-12-03T07:07:23.080Z,4.63
2022-12-03T07:09:53.825Z,4.68
2022-12-03T07:12:24.455Z,4.30
2022-12-03T07:14:55.627Z,4.30
2022-12-03T07:17:30.590Z,5.60
2022-12-03T07:20:01.384Z,4.95
2022-12-03T07:22:33.679Z,5.32
2022-12-03T07:25:04.597Z,5.18
2022-12-03T07:27:35.592Z,4.90
2022-12-03T07:30:07.418Z,4.43
2022-12-03T07:32:41.076Z,5.15
2022-12-03T07:35:12.957Z,5.10
2022-12-03T07:37:43.619Z,5.60
2022-12-03T07:40:15.812Z,4.30
2022-12-03T07:42:46.543Z,4.70
2022-12-03T07:45:17.217Z,5.22
2022-12-03T07:47:50.985Z,5.47
2022-12-03T07:50:21.948Z,5.22
2022-12-03T07:52:52.990Z,5.25
2022-12-03T07:55:25.431Z,4.85
2022-12-03T07:57:56.165Z,5.43
2022-12-03T08:00:27.313Z,5.53
2022-12-03T08:03:00.685Z,6.00
2022-12-03T08:05:31.622Z,6.00
2022-12-03T08:08:02.250Z,7.30
2022-12-03T08:10:33.615Z,6.65
2022-12-03T08:13:06.156Z,6.47
2022-12-03T08:15:39.488Z,7.40
2022-12-03T08:18:19.031Z,7.13
2022-12-03T08:20:51.472Z,8.73
2022-12-03T08:23:24.556Z,8.23
2022-12-03T08:26:02.237Z,10.38
2022-12-03T08:28:32.823Z,8.52
2022-12-03T08:31:05.785Z,8.30
2022-12-03T08:33:40.331Z,7.97
2022-12-03T08:36:17.580Z,7.03
2022-12-03T08:38:52.379Z,7.93
2022-12-03T08:41:35.996Z,7.22
2022-12-03T08:44:19.876Z,8.15
2022-12-03T08:46:53.385Z,9.50
2022-12-03T08:49:26.571Z,8.65
2022-12-03T08:52:00.520Z,11.10
2022-12-03T08:54:31.492Z,8.43
2022-12-03T08:57:05.129Z,8.88
2022-12-03T08:59:35.818Z,8.07
2022-12-03T09:02:20.085Z,8.13
2022-12-03T09:04:56.137Z,9.15
2022-12-03T09:07:27.413Z,8.05
2022-12-03T09:09:58.021Z,9.07
2022-12-03T09:12:28.632Z,8.45
2022-12-03T09:14:59.250Z,9.80
2022-12-03T09:17:29.912Z,7.40
2022-12-03T09:20:03.500Z,8.23
2022-12-03T09:22:34.764Z,7.32
2022-12-03T09:25:05.367Z,5.88
2022-12-03T09:27:36.114Z,7.07
2022-12-03T09:30:07.565Z,5.88
2022-12-03T09:32:38.290Z,4.82
2022-12-03T09:35:12.066Z,4.95
2022-12-03T09:37:42.682Z,5.45
2022-12-03T09:40:15.004Z,6.13
2022-12-03T09:42:45.749Z,5.32
2022-12-03T09:45:17.908Z,5.68
2022-12-03T09:47:51.036Z,7.03
2022-12-03T09:50:27.359Z,5.32
2022-12-03T09:53:01.778Z,4.90
2022-12-03T09:55:33.252Z,3.97
2022-12-03T09:58:04.234Z,4.15
2022-12-03T10:00:35.041Z,5.80
2022-12-03T10:03:09.363Z,4.00
2022-12-03T10:05:47.964Z,4.70
2022-12-03T10:08:22.941Z,5.00
2022-12-03T10:10:56.910Z,6.23
2022-12-03T10:13:31.163Z,5.70
2022-12-03T10:16:04.038Z,6.90
2022-12-03T10:18:41.461Z,7.57
2022-12-03T10:21:23.213Z,7.00
2022-12-03T10:24:20.984Z,7.10
2022-12-03T10:26:52.966Z,5.32
2022-12-03T10:29:29.905Z,7.78
2022-12-03T10:32:05.668Z,7.93
2022-12-03T10:34:39.170Z,9.55
2022-12-03T10:37:18.300Z,14.50
2022-12-03T10:40:00.380Z,15.63
2022-12-03T10:42:33.210Z,12.93
2022-12-03T10:45:19.941Z,10.85
2022-12-03T10:48:07.617Z,11.25
2022-12-03T10:50:39.333Z,9.55
2022-12-03T10:53:13.512Z,8.55
2022-12-03T10:55:46.342Z,8.88
2022-12-03T10:58:24.023Z,9.48
2022-12-03T11:00:58.666Z,10.40
2022-12-03T11:03:31.671Z,10.00
2022-12-03T11:06:04.533Z,9.68
2022-12-03T11:09:00.341Z,9.98
2022-12-03T11:11:34.449Z,10.55
2022-12-03T11:14:06.725Z,9.82
2022-12-03T11:17:10.126Z,9.48
2022-12-03T11:19:52.387Z,11.18
2022-12-03T11:22:44.232Z,8.65
2022-12-03T11:25:50.799Z,10.20
2022-12-03T11:28:56.896Z,7.88
2022-12-03T11:31:42.257Z,8.90
2022-12-03T11:34:51.693Z,11.55
2022-12-03T11:37:30.085Z,9.65
2022-12-03T11:40:05.709Z,10.65
2022-12-03T11:42:43.182Z,10.02
2022-12-03T11:45:31.504Z,11.75
2022-12-03T11:48:20.048Z,15.32
2022-12-03T11:50:54.975Z,11.70
2022-12-03T11:53:27.900Z,11.82
2022-12-03T11:56:09.442Z,11.90
2022-12-03T11:58:42.904Z,10.48
2022-12-03T12:01:17.901Z,10.57
2022-12-03T12:03:50.083Z,13.80
2022-12-03T12:06:22.606Z,16.13
2022-12-03T12:09:04.186Z,16.10
2022-12-03T12:11:47.777Z,14.60
2022-12-03T12:14:29.174Z,15.68
2022-12-03T12:17:04.094Z,14.43
2022-12-03T12:19:37.740Z,16.27
2022-12-03T12:22:21.080Z,13.45
2022-12-03T12:24:54.378Z,13.45
2022-12-03T12:27:32.652Z,14.50
2022-12-03T12:30:05.342Z,15.02
2022-12-03T12:32:47.446Z,16.30
2022-12-03T12:35:21.364Z,16.20
2022-12-03T12:37:59.484Z,13.77
2022-12-03T12:40:33.726Z,15.15
2022-12-03T12:43:14.240Z,14.02
2022-12-03T12:45:47.318Z,14.18
2022-12-03T12:48:26.266Z,16.38
2022-12-03T12:51:09.733Z,16.92
2022-12-03T12:53:43.035Z,17.92
2022-12-03T12:56:26.114Z,19.10
2022-12-03T12:58:57.390Z,18.08
2022-12-03T13:01:30.556Z,17.33
2022-12-03T13:04:03.851Z,13.38
2022-12-03T13:06:35.218Z,13.15
2022-12-03T13:09:06.153Z,14.63
2022-12-03T13:11:42.560Z,15.63
2022-12-03T13:14:20.150Z,18.77
2022-12-03T13:16:52.182Z,18.52
2022-12-03T13:19:30.298Z,19.13
2022-12-03T13:22:03.926Z,14.65
2022-12-03T13:24:37.160Z,16.20
2022-12-03T13:27:25.934Z,15.98
2022-12-03T13:29:59.135Z,14.18
2022-12-03T13:32:33.960Z,15.57
2022-12-03T13:35:09.728Z,18.42
2022-12-03T13:37:40.655Z,18.40
2022-12-03T13:40:23.346Z,14.07
2022-12-03T13:42:52.989Z,12.82
2022-12-03T13:45:34.182Z,13.32
2022-12-03T13:48:07.343Z,12.73
2022-12-03T13:50:44.746Z,15.95
2022-12-03T13:53:23.560Z,13.00
2022-12-03T13:55:57.556Z,13.40
2022-12-03T13:58:28.790Z,13.25
2022-12-03T14:00:59.472Z,13.43
2022-12-03T14:03:30.146Z,13.20
2022-12-03T14:06:03.430Z,14.93
2022-12-03T14:08:34.214Z,15.32
2022-12-03T14:11:05.816Z,13.27
2022-12-03T14:13:36.984Z,14.90
2022-12-03T14:16:08.463Z,15.30
2022-12-03T14:18:39.491Z,14.07
2022-12-03T14:21:12.703Z,14.77
2022-12-03T14:23:43.290Z,14.32
2022-12-03T14:26:14.119Z,14.43
2022-12-03T14:28:44.741Z,13.00
2022-12-03T14:31:15.999Z,14.23
2022-12-03T14:33:46.961Z,15.40
2022-12-03T14:36:20.397Z,16.25
2022-12-03T14:38:50.965Z,15.55
2022-12-03T14:41:33.885Z,15.68
2022-12-03T14:44:04.722Z,14.88
2022-12-03T14:46:36.907Z,17.70
2022-12-03T14:49:07.935Z,15.82
2022-12-03T14:51:41.335Z,15.90
2022-12-03T14:54:12.254Z,15.85
2022-12-03T14:56:43.120Z,17.02
2022-12-03T14:59:14.050Z,15.77
2022-12-03T15:01:44.891Z,16.42
2022-12-03T15:04:15.949Z,15.60
2022-12-03T15:06:49.411Z,16.92
2022-12-03T15:09:20.635Z,20.77
2022-12-03T15:11:51.656Z,20.95
2022-12-03T15:14:22.241Z,17.63
2022-12-03T15:16:52.990Z,16.70
2022-12-03T15:19:23.658Z,18.25
2022-12-03T15:21:56.884Z,17.73
2022-12-03T15:24:27.565Z,20.67
2022-12-03T15:26:58.146Z,22.25
2022-12-03T15:29:29.024Z,19.98
2022-12-03T15:32:01.325Z,20.23
2022-12-03T15:34:32.028Z,19.30
2022-12-03T15:37:05.412Z,20.23
2022-12-03T15:39:36.591Z,21.58
2022-12-03T15:42:07.453Z,19.52
2022-12-03T15:44:38.070Z,20.75
2022-12-03T15:47:08.841Z,20.58
2022-12-03T15:49:39.598Z,17.98
2022-12-03T15:52:12.981Z,19.02
2022-12-03T15:54:43.810Z,18.95
2022-12-03T15:57:14.818Z,17.63
2022-12-03T15:59:46.240Z,17.55
2022-12-03T16:02:19.017Z,18.00
2022-12-03T16:04:49.820Z,17.90
2022-12-03T16:07:23.314Z,17.35
2022-12-03T16:09:54.065Z,18.60
2022-12-03T16:12:25.055Z,18.00
2022-12-03T16:14:55.681Z,18.20
2022-12-03T16:17:26.487Z,17.23
2022-12-03T16:19:57.407Z,15.80
2022-12-03T16:22:30.924Z,16.13
2022-12-03T16:25:01.572Z,16.00
2022-12-03T16:27:34.010Z,14.93
2022-12-03T16:30:05.144Z,14.80
2022-12-03T16:32:36.099Z,16.55
2022-12-03T16:35:07.786Z,16.15
2022-12-03T16:37:41.393Z,15.50
2022-12-03T16:40:13.264Z,16.15
2022-12-03T16:42:44.087Z,16.05
2022-12-03T16:45:26.897Z,16.00
2022-12-03T16:47:58.249Z,16.40
2022-12-03T16:50:30.123Z,16.38
2022-12-03T16:53:03.873Z,17.40
2022-12-03T16:55:34.852Z,16.05
2022-12-03T16:58:05.542Z,18.08
2022-12-03T17:00:36.539Z,18.95
2022-12-03T17:03:07.400Z,19.63
2022-12-03T17:05:38.887Z,18.92
2022-12-03T17:08:12.343Z,18.45
2022-12-03T17:10:43.188Z,20.30
2022-12-03T17:13:14.148Z,17.55
2022-12-03T17:15:45.089Z,18.33
2022-12-03T17:18:15.852Z,18.02
2022-12-03T17:20:46.489Z,18.65
2022-12-03T17:23:20.029Z,20.67
2022-12-03T17:25:50.534Z,17.58
2022-12-03T17:28:21.171Z,18.63
2022-12-03T17:30:51.950Z,17.77
2022-12-03T17:33:23.020Z,17.52
2022-12-03T17:35:53.678Z,17.92
2022-12-03T17:38:26.955Z,16.92
2022-12-03T17:40:57.632Z,18.95
2022-12-03T17:43:28.492Z,16.80
2022-12-03T17:46:00.326Z,17.23
2022-12-03T17:48:31.534Z,19.33
2022-12-03T17:51:17.993Z,16.67
2022-12-03T17:53:51.342Z,16.90
2022-12-03T17:56:21.954Z,15.93
2022-12-03T17:58:52.596Z,15.25
2022-12-03T18:01:23.260Z,15.18
2022-12-03T18:03:53.962Z,13.68
2022-12-03T18:06:26.594Z,14.48
2022-12-03T18:08:59.802Z,14.68
2022-12-03T18:11:30.546Z,15.15
2022-12-03T18:14:01.763Z,13.75
2022-12-03T18:16:32.979Z,14.15
2022-12-03T18:19:06.432Z,13.82
2022-12-03T18:21:38.145Z,12.77
2022-12-03T18:24:12.298Z,14.50
2022-12-03T18:26:43.581Z,14.20
2022-12-03T18:29:14.259Z,14.63
2022-12-03T18:31:45.008Z,13.20
2022-12-03T18:34:15.986Z,13.48
2022-12-03T18:36:46.799Z,12.30
2022-12-03T18:39:27.210Z,11.93
2022-12-03T18:41:57.990Z,11.82
2022-12-03T18:44:29.237Z,12.18
2022-12-03T18:47:00.341Z,13.63
2022-12-03T18:49:31.104Z,11.98
2022-12-03T18:52:01.839Z,11.98
2022-12-03T18:54:35.183Z,12.23
2022-12-03T18:57:05.840Z,12.05
2022-12-03T18:59:36.392Z,11.98
2022-12-03T19:02:07.999Z,11.05
2022-12-03T19:04:38.931Z,11.38
2022-12-03T19:07:09.854Z,10.45
2022-12-03T19:09:43.185Z,10.35
2022-12-03T19:12:14.817Z,10.40
2022-12-03T19:14:45.621Z,9.73
2022-12-03T19:17:16.278Z,9.52
2022-12-03T19:19:46.992Z,10.23
2022-12-03T19:22:17.807Z,10.27
2022-12-03T19:24:51.151Z,11.60
2022-12-03T19:27:22.417Z,11.63
2022-12-03T19:29:53.265Z,11.23
2022-12-03T19:32:24.229Z,9.70
2022-12-03T19:34:55.012Z,11.63
2022-12-03T19:37:25.707Z,11.65
2022-12-03T19:39:59.043Z,12.18
2022-12-03T19:42:31.435Z,11.27
2022-12-03T19:45:02.114Z,10.30
2022-12-03T19:47:33.719Z,11.70
2022-12-03T19:50:04.404Z,11.45
2022-12-03T19:52:38.271Z,12.95
2022-12-03T19:55:13.527Z,11.57
2022-12-03T19:57:44.229Z,11.05
2022-12-03T20:00:16.421Z,12.15
2022-12-03T20:02:47.316Z,11.55
2022-12-03T20:05:18.066Z,10.82
2022-12-03T20:07:48.811Z,11.65
2022-12-03T20:10:22.190Z,12.60
2022-12-03T20:12:52.829Z,11.63
2022-12-03T20:15:23.543Z,14.35
2022-12-03T20:17:55.524Z,12.60
2022-12-03T20:20:26.473Z,12.15
2022-12-03T20:22:57.161Z,10.48
2022-12-03T20:25:30.587Z,10.70
2022-12-03T20:28:01.300Z,10.82
2022-12-03T20:30:31.977Z,10.98
2022-12-03T20:33:02.557Z,10.48
2022-12-03T20:35:33.680Z,10.43
2022-12-03T20:38:04.583Z,10.48
2022-12-03T20:40:39.569Z,10.80
2022-12-03T20:43:10.431Z,10.40
2022-12-03T20:45:41.248Z,12.98
2022-12-03T20:48:12.522Z,14.52
2022-12-03T20:50:43.588Z,14.50
2022-12-03T20:53:24.709Z,14.57
2022-12-03T20:56:01.798Z,12.27
2022-12-03T20:58:33.300Z,12.55
2022-12-03T21:01:15.570Z,12.35
2022-12-03T21:03:46.613Z,10.40
2022-12-03T21:06:18.345Z,11.07
2022-12-03T21:08:49.560Z,10.55
2022-12-03T21:11:24.766Z,11.00
2022-12-03T21:13:56.866Z,10.27
2022-12-03T21:16:59.226Z,9.90
2022-12-03T21:19:22.178Z,11.55
2022-12-03T21:21:52.949Z,10.50
2022-12-03T21:24:23.785Z,11.43
2022-12-03T21:26:57.352Z,10.45
2022-12-03T21:29:28.354Z,9.48
2022-12-03T21:31:58.966Z,8.23
2022-12-03T21:34:35.862Z,8.75
2022-12-03T21:37:07.738Z,8.00
2022-12-03T21:39:38.889Z,6.78
2022-12-03T21:42:19.324Z,8.75
2022-12-03T21:45:03.088Z,8.73
2022-12-03T21:47:37.170Z,10.18
2022-12-03T21:50:11.309Z,7.43
2022-12-03T21:52:41.851Z,7.75
2022-12-03T21:55:13.073Z,7.00
2022-12-03T21:57:46.290Z,6.70
2022-12-03T22:00:18.188Z,6.47
2022-12-03T22:02:48.959Z,6.60
2022-12-03T22:05:20.311Z,6.47
2022-12-03T22:07:51.250Z,6.93
2022-12-03T22:10:22.130Z,6.47
2022-12-03T22:12:55.401Z,6.28
2022-12-03T22:15:26.035Z,6.70
2022-12-03T22:17:56.717Z,6.07
2022-12-03T22:20:27.316Z,5.75
2022-12-03T22:22:57.945Z,5.68
2022-12-03T22:25:28.611Z,7.15
2022-12-03T22:28:01.858Z,8.43
2022-12-03T22:30:32.554Z,10.25
2022-12-03T22:33:03.165Z,6.78
2022-12-03T22:35:33.809Z,7.53
2022-12-03T22:38:04.683Z,7.22
2022-12-03T22:40:35.337Z,6.53
2022-12-03T22:43:08.802Z,5.72
2022-12-03T22:45:39.496Z,6.78
2022-12-03T22:48:10.329Z,6.07
2022-12-03T22:50:45.936Z,6.97
2022-12-03T22:53:17.445Z,6.88
2022-12-03T22:55:48.152Z,6.80
2022-12-03T22:58:21.366Z,6.95
2022-12-03T23:00:51.926Z,7.43
2022-12-03T23:03:23.007Z,10.20
2022-12-03T23:05:53.799Z,10.32
2022-12-03T23:08:25.095Z,7.47
2022-12-03T23:10:56.409Z,7.53
2022-12-03T23:13:29.661Z,6.90
2022-12-03T23:16:00.425Z,7.57
2022-12-03T23:18:31.305Z,7.13
2022-12-03T23:21:02.404Z,6.55
2022-12-03T23:23:33.070Z,8.32
2022-12-03T23:26:04.788Z,9.38
2022-12-03T23:28:41.233Z,10.88
2022-12-03T23:31:19.891Z,10.02
2022-12-03T23:33:50.939Z,9.43
2022-12-03T23:36:23.311Z,10.30
2022-12-03T23:38:54.207Z,9.38
2022-12-03T23:41:26.903Z,9.88
2022-12-03T23:44:00.853Z,9.80
2022-12-03T23:46:32.083Z,9.05
2022-12-03T23:49:03.145Z,9.70
2022-12-03T23:51:33.916Z,9.27
2022-12-03T23:54:04.877Z,9.68
2022-12-03T23:56:35.602Z,9.07
2022-12-03T23:59:09.035Z,9.57
